Brookings, SD (57006)

6:38 PM CDT on August 31, 2016 (GMT -0500)
Neighborhood | | Change Station

Elev 1627 ft 44.29 °N, 96.78 °W | Updated 1 minute ago

Partly Cloudy
Partly Cloudy
78.8 °F
Feels Like 80 °F
N
0.0
Wind Variable Wind from East
Gusts 2.0 mph

Today
High -- | Low -- °F
--% Chance of Precip.
Yesterday
High -- | Low -- °F
Precip. -- in
Pressure 30.20 in
Visibility 10.0 miles
Clouds Few 5000 ft
Heat Index 80 °F
Dew Point 61 °F
Humidity 54%
Rainfall 0.00 in
Snow Depth Not available.
6:49 AM 8:04 PM
Waning Crescent, 0% visible
METAR KBKX 312301Z AUTO 08006KT 10SM FEW050 26/15 A3018 RMK AO2 SLP227 T02610150
Pressure 30.20 in
Visibility 10.0 miles
Clouds Few 5000 ft
Heat Index 80 °F
Dew Point 61 °F
Humidity 54%
Rainfall 0.00 in
Snow Depth Not available.
6:49 AM 8:04 PM
Waning Crescent, 0% visible
METAR KBKX 312301Z AUTO 08006KT 10SM FEW050 26/15 A3018 RMK AO2 SLP227 T02610150

10-Day Weather Forecast

Almanac

Astronomy

Aug. 31, 2016 Rise Set
Actual Time
Civil Twilight
Nautical Twilight
Astronomical Twilight
Moon
Length of Visible Light
Length of Day
Tomorrow will be .
, % of the Moon is Illuminated

Today's Extremes

State Highs State Lows

Community

WunderPhotos

Upload Photos

1,936,215 photos uploaded!

WunderBlog® & News

Nearby

Air Quality

  Air Quality AQ Index Pollutant
Not available.

Snow Depth

Station Depth Elevation

Earthquake Activity

City Distance Mag. Time & Date
Minimum magnitude displayed is 2.5.

Coastal Water Temperatures

Place Temperature

Stations

Nearby Weather Stations

Station Location Temp. Windchill Dew Point Humidity Wind Precip. Elev Updated Type
                   

Watches & Warnings

There are currently no watches in effect.